sensor_id;sensor_type;location;lat;lon;timestamp;temperature;humidity
64939;DHT22;51453;47.738;7.420;2022-11-27T00:01:17;5.40;99.90
64939;DHT22;51453;47.738;7.420;2022-11-27T00:03:43;5.40;99.90
64939;DHT22;51453;47.738;7.420;2022-11-27T00:06:14;5.40;99.90
64939;DHT22;51453;47.738;7.420;2022-11-27T00:08:41;5.50;99.90
64939;DHT22;51453;47.738;7.420;2022-11-27T00:11:27;5.50;99.90
64939;DHT22;51453;47.738;7.420;2022-11-27T00:13:54;5.50;99.90
64939;DHT22;51453;47.738;7.420;2022-11-27T00:16:20;5.50;99.90
64939;DHT22;51453;47.738;7.420;2022-11-27T00:18:46;5.50;99.90
64939;DHT22;51453;47.738;7.420;2022-11-27T00:21:16;5.60;99.90
64939;DHT22;51453;47.738;7.420;2022-11-27T00:23:43;5.50;99.90
64939;DHT22;51453;47.738;7.420;2022-11-27T00:26:09;5.50;99.90
64939;DHT22;51453;47.738;7.420;2022-11-27T00:28:35;5.50;99.90
64939;DHT22;51453;47.738;7.420;2022-11-27T00:31:13;5.50;99.90
64939;DHT22;51453;47.738;7.420;2022-11-27T00:33:39;5.60;99.90
64939;DHT22;51453;47.738;7.420;2022-11-27T00:36:06;5.40;99.90
64939;DHT22;51453;47.738;7.420;2022-11-27T00:38:33;5.40;99.90
64939;DHT22;51453;47.738;7.420;2022-11-27T00:41:10;5.40;99.90
64939;DHT22;51453;47.738;7.420;2022-11-27T00:43:37;5.40;99.90
64939;DHT22;51453;47.738;7.420;2022-11-27T00:46:03;5.30;99.90
64939;DHT22;51453;47.738;7.420;2022-11-27T00:48:29;5.40;99.90
64939;DHT22;51453;47.738;7.420;2022-11-27T00:51:00;5.30;99.90
64939;DHT22;51453;47.738;7.420;2022-11-27T00:53:26;5.40;99.90
64939;DHT22;51453;47.738;7.420;2022-11-27T00:55:53;5.30;99.90
64939;DHT22;51453;47.738;7.420;2022-11-27T00:58:19;5.30;99.90
64939;DHT22;51453;47.738;7.420;2022-11-27T01:00:44;5.30;99.90
64939;DHT22;51453;47.738;7.420;2022-11-27T01:03:10;5.30;99.90
64939;DHT22;51453;47.738;7.420;2022-11-27T01:05:36;5.30;99.90
64939;DHT22;51453;47.738;7.420;2022-11-27T01:08:02;5.20;99.90
64939;DHT22;51453;47.738;7.420;2022-11-27T01:10:28;5.20;99.90
64939;DHT22;51453;47.738;7.420;2022-11-27T01:12:54;5.10;99.90
64939;DHT22;51453;47.738;7.420;2022-11-27T01:15:19;5.10;99.90
64939;DHT22;51453;47.738;7.420;2022-11-27T01:17:45;5.00;99.90
64939;DHT22;51453;47.738;7.420;2022-11-27T01:20:11;5.00;99.90
64939;DHT22;51453;47.738;7.420;2022-11-27T01:22:37;5.00;99.90
64939;DHT22;51453;47.738;7.420;2022-11-27T01:25:02;4.90;99.90
64939;DHT22;51453;47.738;7.420;2022-11-27T01:27:28;4.80;99.90
64939;DHT22;51453;47.738;7.420;2022-11-27T01:29:54;4.80;99.90
64939;DHT22;51453;47.738;7.420;2022-11-27T01:32:20;4.80;99.90
64939;DHT22;51453;47.738;7.420;2022-11-27T01:34:45;4.70;99.90
64939;DHT22;51453;47.738;7.420;2022-11-27T01:37:11;4.70;99.90
64939;DHT22;51453;47.738;7.420;2022-11-27T01:39:36;4.70;99.90
64939;DHT22;51453;47.738;7.420;2022-11-27T01:42:02;4.60;99.90
64939;DHT22;51453;47.738;7.420;2022-11-27T01:47:04;4.50;99.90
64939;DHT22;51453;47.738;7.420;2022-11-27T01:49:47;4.30;99.90
64939;DHT22;51453;47.738;7.420;2022-11-27T01:54:54;4.10;99.90
64939;DHT22;51453;47.738;7.420;2022-11-27T01:57:24;4.10;99.90
64939;DHT22;51453;47.738;7.420;2022-11-27T01:59:53;4.00;99.90
64939;DHT22;51453;47.738;7.420;2022-11-27T02:02:19;3.90;99.90
64939;DHT22;51453;47.738;7.420;2022-11-27T02:04:45;3.90;99.90
64939;DHT22;51453;47.738;7.420;2022-11-27T02:07:10;3.90;99.90
64939;DHT22;51453;47.738;7.420;2022-11-27T02:09:36;3.90;99.90
64939;DHT22;51453;47.738;7.420;2022-11-27T02:12:15;3.90;99.90
64939;DHT22;51453;47.738;7.420;2022-11-27T02:20:59;3.90;99.90
64939;DHT22;51453;47.738;7.420;2022-11-27T02:23:40;3.80;99.90
64939;DHT22;51453;47.738;7.420;2022-11-27T02:29:09;3.70;99.90
64939;DHT22;51453;47.738;7.420;2022-11-27T02:32:14;3.80;99.90
64939;DHT22;51453;47.738;7.420;2022-11-27T02:35:46;3.90;99.90
64939;DHT22;51453;47.738;7.420;2022-11-27T02:40:58;3.90;99.90
64939;DHT22;51453;47.738;7.420;2022-11-27T02:43:29;3.90;99.90
64939;DHT22;51453;47.738;7.420;2022-11-27T02:45:58;3.90;99.90
64939;DHT22;51453;47.738;7.420;2022-11-27T02:48:36;3.90;99.90
64939;DHT22;51453;47.738;7.420;2022-11-27T02:51:04;3.80;99.90
64939;DHT22;51453;47.738;7.420;2022-11-27T02:53:39;3.80;99.90
64939;DHT22;51453;47.738;7.420;2022-11-27T02:56:10;3.80;99.90
64939;DHT22;51453;47.738;7.420;2022-11-27T02:58:37;3.70;99.90
64939;DHT22;51453;47.738;7.420;2022-11-27T03:01:06;3.70;99.90
64939;DHT22;51453;47.738;7.420;2022-11-27T03:03:36;3.70;99.90
64939;DHT22;51453;47.738;7.420;2022-11-27T03:06:09;3.80;99.90
64939;DHT22;51453;47.738;7.420;2022-11-27T03:08:49;3.80;99.90
64939;DHT22;51453;47.738;7.420;2022-11-27T03:11:18;3.80;99.90
64939;DHT22;51453;47.738;7.420;2022-11-27T03:13:47;3.70;99.90
64939;DHT22;51453;47.738;7.420;2022-11-27T03:16:35;3.70;99.90
64939;DHT22;51453;47.738;7.420;2022-11-27T03:19:20;3.70;99.90
64939;DHT22;51453;47.738;7.420;2022-11-27T03:21:59;3.60;99.90
64939;DHT22;51453;47.738;7.420;2022-11-27T03:24:27;3.70;99.90
64939;DHT22;51453;47.738;7.420;2022-11-27T03:26:53;3.70;99.90
64939;DHT22;51453;47.738;7.420;2022-11-27T03:29:24;3.80;99.90
64939;DHT22;51453;47.738;7.420;2022-11-27T03:31:51;3.80;99.90
64939;DHT22;51453;47.738;7.420;2022-11-27T03:34:17;3.90;99.90
64939;DHT22;51453;47.738;7.420;2022-11-27T03:36:44;4.00;99.90
64939;DHT22;51453;47.738;7.420;2022-11-27T03:39:10;3.90;99.90
64939;DHT22;51453;47.738;7.420;2022-11-27T03:44:49;4.00;99.90
64939;DHT22;51453;47.738;7.420;2022-11-27T03:56:12;4.00;99.90
64939;DHT22;51453;47.738;7.420;2022-11-27T03:58:49;4.00;99.90
64939;DHT22;51453;47.738;7.420;2022-11-27T04:01:18;4.10;99.90
64939;DHT22;51453;47.738;7.420;2022-11-27T04:03:45;4.10;99.90
64939;DHT22;51453;47.738;7.420;2022-11-27T04:06:11;4.00;99.90
64939;DHT22;51453;47.738;7.420;2022-11-27T04:08:37;4.10;99.90
64939;DHT22;51453;47.738;7.420;2022-11-27T04:11:03;4.10;99.90
64939;DHT22;51453;47.738;7.420;2022-11-27T04:13:29;4.10;99.90
64939;DHT22;51453;47.738;7.420;2022-11-27T04:15:55;4.10;99.90
64939;DHT22;51453;47.738;7.420;2022-11-27T04:18:20;4.10;99.90
64939;DHT22;51453;47.738;7.420;2022-11-27T04:20:46;4.20;99.90
64939;DHT22;51453;47.738;7.420;2022-11-27T04:23:11;4.20;99.90
64939;DHT22;51453;47.738;7.420;2022-11-27T04:25:37;4.30;99.90
64939;DHT22;51453;47.738;7.420;2022-11-27T04:28:03;4.20;99.90
64939;DHT22;51453;47.738;7.420;2022-11-27T04:30:28;4.20;99.90
64939;DHT22;51453;47.738;7.420;2022-11-27T04:32:54;4.20;99.90
64939;DHT22;51453;47.738;7.420;2022-11-27T04:35:19;4.20;99.90
64939;DHT22;51453;47.738;7.420;2022-11-27T04:37:45;4.20;99.90
64939;DHT22;51453;47.738;7.420;2022-11-27T04:40:11;4.20;99.90
64939;DHT22;51453;47.738;7.420;2022-11-27T04:42:37;4.20;99.90
64939;DHT22;51453;47.738;7.420;2022-11-27T04:45:03;4.20;99.90
64939;DHT22;51453;47.738;7.420;2022-11-27T04:47:29;4.30;99.90
64939;DHT22;51453;47.738;7.420;2022-11-27T04:49:54;4.20;99.90
64939;DHT22;51453;47.738;7.420;2022-11-27T04:52:20;4.30;99.90
64939;DHT22;51453;47.738;7.420;2022-11-27T04:54:45;4.30;99.90
64939;DHT22;51453;47.738;7.420;2022-11-27T04:57:11;4.20;99.90
64939;DHT22;51453;47.738;7.420;2022-11-27T04:59:37;4.20;99.90
64939;DHT22;51453;47.738;7.420;2022-11-27T05:02:03;4.20;99.90
64939;DHT22;51453;47.738;7.420;2022-11-27T05:04:28;4.20;99.90
64939;DHT22;51453;47.738;7.420;2022-11-27T05:06:54;4.10;99.90
64939;DHT22;51453;47.738;7.420;2022-11-27T05:09:19;4.10;99.90
64939;DHT22;51453;47.738;7.420;2022-11-27T05:11:45;4.10;99.90
64939;DHT22;51453;47.738;7.420;2022-11-27T05:14:11;4.10;99.90
64939;DHT22;51453;47.738;7.420;2022-11-27T05:16:49;4.20;99.90
64939;DHT22;51453;47.738;7.420;2022-11-27T05:19:16;4.10;99.90
64939;DHT22;51453;47.738;7.420;2022-11-27T05:21:43;4.10;99.90
64939;DHT22;51453;47.738;7.420;2022-11-27T05:24:09;4.10;99.90
64939;DHT22;51453;47.738;7.420;2022-11-27T05:26:35;4.10;99.90
64939;DHT22;51453;47.738;7.420;2022-11-27T05:29:02;4.00;99.90
64939;DHT22;51453;47.738;7.420;2022-11-27T05:31:27;4.00;99.90
64939;DHT22;51453;47.738;7.420;2022-11-27T05:33:53;4.00;99.90
64939;DHT22;51453;47.738;7.420;2022-11-27T05:36:19;3.90;99.90
64939;DHT22;51453;47.738;7.420;2022-11-27T05:38:44;3.90;99.90
64939;DHT22;51453;47.738;7.420;2022-11-27T05:41:10;3.90;99.90
64939;DHT22;51453;47.738;7.420;2022-11-27T05:43:36;3.80;99.90
64939;DHT22;51453;47.738;7.420;2022-11-27T05:46:06;3.80;99.90
64939;DHT22;51453;47.738;7.420;2022-11-27T05:48:33;3.70;99.90
64939;DHT22;51453;47.738;7.420;2022-11-27T05:51:00;3.60;99.90
64939;DHT22;51453;47.738;7.420;2022-11-27T05:53:26;3.60;99.90
64939;DHT22;51453;47.738;7.420;2022-11-27T05:55:51;3.60;99.90
64939;DHT22;51453;47.738;7.420;2022-11-27T05:58:17;3.60;99.90
64939;DHT22;51453;47.738;7.420;2022-11-27T06:00:44;3.50;99.90
64939;DHT22;51453;47.738;7.420;2022-11-27T06:03:09;3.50;99.90
64939;DHT22;51453;47.738;7.420;2022-11-27T06:05:39;3.50;99.90
64939;DHT22;51453;47.738;7.420;2022-11-27T06:08:05;3.50;99.90
64939;DHT22;51453;47.738;7.420;2022-11-27T06:10:31;3.50;99.90
64939;DHT22;51453;47.738;7.420;2022-11-27T06:12:57;3.40;99.90
64939;DHT22;51453;47.738;7.420;2022-11-27T06:15:22;3.40;99.90
64939;DHT22;51453;47.738;7.420;2022-11-27T06:17:48;3.40;99.90
64939;DHT22;51453;47.738;7.420;2022-11-27T06:20:14;3.30;99.90
64939;DHT22;51453;47.738;7.420;2022-11-27T06:22:40;3.30;99.90
64939;DHT22;51453;47.738;7.420;2022-11-27T06:25:06;3.20;99.90
64939;DHT22;51453;47.738;7.420;2022-11-27T06:27:33;3.20;99.90
64939;DHT22;51453;47.738;7.420;2022-11-27T06:29:59;3.20;99.90
64939;DHT22;51453;47.738;7.420;2022-11-27T06:32:25;3.20;99.90
64939;DHT22;51453;47.738;7.420;2022-11-27T06:34:50;3.20;99.90
64939;DHT22;51453;47.738;7.420;2022-11-27T06:37:16;3.20;99.90
64939;DHT22;51453;47.738;7.420;2022-11-27T06:39:41;3.30;99.90
64939;DHT22;51453;47.738;7.420;2022-11-27T06:42:07;3.30;99.90
64939;DHT22;51453;47.738;7.420;2022-11-27T06:44:33;3.30;99.90
64939;DHT22;51453;47.738;7.420;2022-11-27T06:46:59;3.40;99.90
64939;DHT22;51453;47.738;7.420;2022-11-27T06:49:24;3.50;99.90
64939;DHT22;51453;47.738;7.420;2022-11-27T06:51:50;3.50;99.90
64939;DHT22;51453;47.738;7.420;2022-11-27T06:54:16;3.60;99.90
64939;DHT22;51453;47.738;7.420;2022-11-27T06:56:41;3.60;99.90
64939;DHT22;51453;47.738;7.420;2022-11-27T06:59:11;3.70;99.90
64939;DHT22;51453;47.738;7.420;2022-11-27T07:01:40;3.80;99.90
64939;DHT22;51453;47.738;7.420;2022-11-27T07:04:11;3.80;99.90
64939;DHT22;51453;47.738;7.420;2022-11-27T07:06:38;3.80;99.90
64939;DHT22;51453;47.738;7.420;2022-11-27T07:09:04;3.90;99.90
64939;DHT22;51453;47.738;7.420;2022-11-27T07:11:30;3.90;99.90
64939;DHT22;51453;47.738;7.420;2022-11-27T07:13:58;4.00;99.90
64939;DHT22;51453;47.738;7.420;2022-11-27T07:16:26;4.00;99.90
64939;DHT22;51453;47.738;7.420;2022-11-27T07:18:56;4.00;99.90
64939;DHT22;51453;47.738;7.420;2022-11-27T07:21:22;4.00;99.90
64939;DHT22;51453;47.738;7.420;2022-11-27T07:23:47;4.10;99.90
64939;DHT22;51453;47.738;7.420;2022-11-27T07:26:16;4.00;99.90
64939;DHT22;51453;47.738;7.420;2022-11-27T07:28:42;4.10;99.90
64939;DHT22;51453;47.738;7.420;2022-11-27T07:31:09;4.10;99.90
64939;DHT22;51453;47.738;7.420;2022-11-27T07:33:35;4.10;99.90
64939;DHT22;51453;47.738;7.420;2022-11-27T07:36:04;4.20;99.90
64939;DHT22;51453;47.738;7.420;2022-11-27T07:38:30;4.30;99.90
64939;DHT22;51453;47.738;7.420;2022-11-27T07:40:59;4.40;99.90
64939;DHT22;51453;47.738;7.420;2022-11-27T07:43:26;4.40;99.90
64939;DHT22;51453;47.738;7.420;2022-11-27T07:45:52;4.50;99.90
64939;DHT22;51453;47.738;7.420;2022-11-27T07:48:17;4.40;99.90
64939;DHT22;51453;47.738;7.420;2022-11-27T07:50:43;4.40;99.90
64939;DHT22;51453;47.738;7.420;2022-11-27T07:53:09;4.40;99.90
64939;DHT22;51453;47.738;7.420;2022-11-27T07:55:37;4.40;99.90
64939;DHT22;51453;47.738;7.420;2022-11-27T07:58:03;4.30;99.90
64939;DHT22;51453;47.738;7.420;2022-11-27T08:00:29;4.30;99.90
64939;DHT22;51453;47.738;7.420;2022-11-27T08:02:54;4.20;99.90
64939;DHT22;51453;47.738;7.420;2022-11-27T08:05:20;4.30;99.90
64939;DHT22;51453;47.738;7.420;2022-11-27T08:07:45;4.20;99.90
64939;DHT22;51453;47.738;7.420;2022-11-27T08:10:11;4.10;99.90
64939;DHT22;51453;47.738;7.420;2022-11-27T08:12:37;4.10;99.90
64939;DHT22;51453;47.738;7.420;2022-11-27T08:15:03;4.20;99.90
64939;DHT22;51453;47.738;7.420;2022-11-27T08:17:30;4.20;99.90
64939;DHT22;51453;47.738;7.420;2022-11-27T08:19:55;4.20;99.90
64939;DHT22;51453;47.738;7.420;2022-11-27T08:22:21;4.30;99.90
64939;DHT22;51453;47.738;7.420;2022-11-27T08:24:47;4.30;99.90
64939;DHT22;51453;47.738;7.420;2022-11-27T08:27:14;4.50;99.90
64939;DHT22;51453;47.738;7.420;2022-11-27T08:29:40;4.60;99.90
64939;DHT22;51453;47.738;7.420;2022-11-27T08:32:06;4.60;99.90
64939;DHT22;51453;47.738;7.420;2022-11-27T08:34:32;4.70;99.90
64939;DHT22;51453;47.738;7.420;2022-11-27T08:36:57;4.80;99.90
64939;DHT22;51453;47.738;7.420;2022-11-27T08:39:23;4.90;99.90
64939;DHT22;51453;47.738;7.420;2022-11-27T08:41:51;5.10;99.90
64939;DHT22;51453;47.738;7.420;2022-11-27T08:44:17;5.30;99.90
64939;DHT22;51453;47.738;7.420;2022-11-27T08:46:43;5.60;99.90
64939;DHT22;51453;47.738;7.420;2022-11-27T08:49:09;5.90;99.90
64939;DHT22;51453;47.738;7.420;2022-11-27T08:51:35;6.20;99.90
64939;DHT22;51453;47.738;7.420;2022-11-27T08:54:00;6.40;99.90
64939;DHT22;51453;47.738;7.420;2022-11-27T08:56:26;6.60;99.90
64939;DHT22;51453;47.738;7.420;2022-11-27T08:58:52;6.70;99.90
64939;DHT22;51453;47.738;7.420;2022-11-27T09:01:21;6.80;99.90
64939;DHT22;51453;47.738;7.420;2022-11-27T09:03:47;6.80;99.90
64939;DHT22;51453;47.738;7.420;2022-11-27T09:06:16;6.90;99.90
64939;DHT22;51453;47.738;7.420;2022-11-27T09:08:43;6.80;99.90
64939;DHT22;51453;47.738;7.420;2022-11-27T09:11:10;6.80;99.90
64939;DHT22;51453;47.738;7.420;2022-11-27T09:13:37;6.80;99.90
64939;DHT22;51453;47.738;7.420;2022-11-27T09:16:04;6.80;99.90
64939;DHT22;51453;47.738;7.420;2022-11-27T09:18:30;6.90;99.90
64939;DHT22;51453;47.738;7.420;2022-11-27T09:21:01;6.90;99.90
64939;DHT22;51453;47.738;7.420;2022-11-27T09:23:28;6.90;99.90
64939;DHT22;51453;47.738;7.420;2022-11-27T09:25:57;6.90;99.90
64939;DHT22;51453;47.738;7.420;2022-11-27T09:28:23;6.90;99.90
64939;DHT22;51453;47.738;7.420;2022-11-27T09:30:54;6.90;99.90
64939;DHT22;51453;47.738;7.420;2022-11-27T09:33:19;7.00;99.90
64939;DHT22;51453;47.738;7.420;2022-11-27T09:35:45;7.10;99.90
64939;DHT22;51453;47.738;7.420;2022-11-27T09:38:11;7.10;99.90
64939;DHT22;51453;47.738;7.420;2022-11-27T09:40:36;7.10;99.90
64939;DHT22;51453;47.738;7.420;2022-11-27T09:43:10;7.20;99.90
64939;DHT22;51453;47.738;7.420;2022-11-27T09:45:45;7.30;99.90
64939;DHT22;51453;47.738;7.420;2022-11-27T09:48:38;7.40;99.90
64939;DHT22;51453;47.738;7.420;2022-11-27T09:51:18;7.40;99.90
64939;DHT22;51453;47.738;7.420;2022-11-27T09:53:53;7.40;99.90
64939;DHT22;51453;47.738;7.420;2022-11-27T09:56:20;7.50;99.90
64939;DHT22;51453;47.738;7.420;2022-11-27T09:58:53;7.60;99.90
64939;DHT22;51453;47.738;7.420;2022-11-27T10:01:26;7.80;99.90
64939;DHT22;51453;47.738;7.420;2022-11-27T10:03:53;7.80;99.90
64939;DHT22;51453;47.738;7.420;2022-11-27T10:17:41;8.20;99.90
64939;DHT22;51453;47.738;7.420;2022-11-27T10:26:28;8.50;99.90
64939;DHT22;51453;47.738;7.420;2022-11-27T10:32:07;8.60;99.90
64939;DHT22;51453;47.738;7.420;2022-11-27T10:37:40;8.50;99.90
64939;DHT22;51453;47.738;7.420;2022-11-27T10:40:19;8.50;99.90
64939;DHT22;51453;47.738;7.420;2022-11-27T10:43:19;8.60;99.90
64939;DHT22;51453;47.738;7.420;2022-11-27T10:48:15;8.70;99.90
64939;DHT22;51453;47.738;7.420;2022-11-27T10:50:42;8.80;99.90
64939;DHT22;51453;47.738;7.420;2022-11-27T10:53:13;8.80;99.90
64939;DHT22;51453;47.738;7.420;2022-11-27T10:58:44;8.90;99.90
64939;DHT22;51453;47.738;7.420;2022-11-27T11:01:14;9.00;99.90
64939;DHT22;51453;47.738;7.420;2022-11-27T11:03:40;9.10;99.90
64939;DHT22;51453;47.738;7.420;2022-11-27T11:06:19;9.10;99.90
64939;DHT22;51453;47.738;7.420;2022-11-27T11:08:46;9.10;99.90
64939;DHT22;51453;47.738;7.420;2022-11-27T11:11:12;9.00;99.90
64939;DHT22;51453;47.738;7.420;2022-11-27T11:18:48;9.10;99.90
64939;DHT22;51453;47.738;7.420;2022-11-27T11:21:37;8.90;99.90
64939;DHT22;51453;47.738;7.420;2022-11-27T11:24:11;8.90;99.90
64939;DHT22;51453;47.738;7.420;2022-11-27T11:29:45;8.80;99.90
64939;DHT22;51453;47.738;7.420;2022-11-27T11:32:22;8.90;99.90
64939;DHT22;51453;47.738;7.420;2022-11-27T11:37:40;9.10;99.90
64939;DHT22;51453;47.738;7.420;2022-11-27T11:42:37;9.40;99.90
64939;DHT22;51453;47.738;7.420;2022-11-27T11:47:56;9.40;99.90
64939;DHT22;51453;47.738;7.420;2022-11-27T12:01:56;9.50;99.90
64939;DHT22;51453;47.738;7.420;2022-11-27T12:04:33;9.50;99.90
64939;DHT22;51453;47.738;7.420;2022-11-27T12:09:59;9.50;99.90
64939;DHT22;51453;47.738;7.420;2022-11-27T12:13:13;9.70;99.90
64939;DHT22;51453;47.738;7.420;2022-11-27T12:15:49;9.60;99.90
64939;DHT22;51453;47.738;7.420;2022-11-27T12:41:40;9.70;99.90
64939;DHT22;51453;47.738;7.420;2022-11-27T12:43:57;9.70;99.90
64939;DHT22;51453;47.738;7.420;2022-11-27T12:46:38;9.60;99.90
64939;DHT22;51453;47.738;7.420;2022-11-27T12:49:16;9.60;99.90
64939;DHT22;51453;47.738;7.420;2022-11-27T12:54:34;9.70;99.90
64939;DHT22;51453;47.738;7.420;2022-11-27T12:57:07;9.60;99.90
64939;DHT22;51453;47.738;7.420;2022-11-27T12:59:42;9.60;99.90
64939;DHT22;51453;47.738;7.420;2022-11-27T13:02:42;9.60;99.90
64939;DHT22;51453;47.738;7.420;2022-11-27T13:05:33;9.50;99.90
64939;DHT22;51453;47.738;7.420;2022-11-27T13:08:15;9.40;99.90
64939;DHT22;51453;47.738;7.420;2022-11-27T13:10:55;9.40;99.90
64939;DHT22;51453;47.738;7.420;2022-11-27T13:13:59;9.40;99.90
64939;DHT22;51453;47.738;7.420;2022-11-27T13:16:36;9.30;99.90
64939;DHT22;51453;47.738;7.420;2022-11-27T13:22:07;9.40;99.90
64939;DHT22;51453;47.738;7.420;2022-11-27T13:24:34;9.40;99.90
64939;DHT22;51453;47.738;7.420;2022-11-27T13:27:14;9.40;99.90
64939;DHT22;51453;47.738;7.420;2022-11-27T13:32:25;9.40;99.90
64939;DHT22;51453;47.738;7.420;2022-11-27T13:34:54;9.40;99.90
64939;DHT22;51453;47.738;7.420;2022-11-27T13:37:38;9.50;99.90
64939;DHT22;51453;47.738;7.420;2022-11-27T13:42:33;9.60;99.90
64939;DHT22;51453;47.738;7.420;2022-11-27T13:45:07;9.50;99.90
64939;DHT22;51453;47.738;7.420;2022-11-27T13:47:41;9.50;99.90
64939;DHT22;51453;47.738;7.420;2022-11-27T13:50:08;9.40;99.90
64939;DHT22;51453;47.738;7.420;2022-11-27T13:52:36;9.20;99.90
64939;DHT22;51453;47.738;7.420;2022-11-27T13:55:04;9.20;99.90
64939;DHT22;51453;47.738;7.420;2022-11-27T13:57:32;9.10;99.90
64939;DHT22;51453;47.738;7.420;2022-11-27T14:00:07;9.00;99.90
64939;DHT22;51453;47.738;7.420;2022-11-27T14:02:50;8.90;99.90
64939;DHT22;51453;47.738;7.420;2022-11-27T14:05:19;8.80;99.90
64939;DHT22;51453;47.738;7.420;2022-11-27T14:07:51;8.70;99.90
64939;DHT22;51453;47.738;7.420;2022-11-27T14:10:26;8.70;99.90
64939;DHT22;51453;47.738;7.420;2022-11-27T14:15:29;8.50;99.90
64939;DHT22;51453;47.738;7.420;2022-11-27T14:20:55;8.50;99.90
64939;DHT22;51453;47.738;7.420;2022-11-27T14:23:48;8.40;99.90
64939;DHT22;51453;47.738;7.420;2022-11-27T14:28:42;8.50;99.90
64939;DHT22;51453;47.738;7.420;2022-11-27T14:31:31;8.40;99.90
64939;DHT22;51453;47.738;7.420;2022-11-27T14:33:58;8.40;99.90
64939;DHT22;51453;47.738;7.420;2022-11-27T14:36:29;8.40;99.90
64939;DHT22;51453;47.738;7.420;2022-11-27T14:38:59;8.40;99.90
64939;DHT22;51453;47.738;7.420;2022-11-27T14:41:26;8.40;99.90
64939;DHT22;51453;47.738;7.420;2022-11-27T14:46:26;8.40;99.90
64939;DHT22;51453;47.738;7.420;2022-11-27T14:48:53;8.40;99.90
64939;DHT22;51453;47.738;7.420;2022-11-27T14:51:26;8.40;99.90
64939;DHT22;51453;47.738;7.420;2022-11-27T14:54:02;8.30;99.90
64939;DHT22;51453;47.738;7.420;2022-11-27T14:56:34;8.30;99.90
64939;DHT22;51453;47.738;7.420;2022-11-27T14:59:01;8.30;99.90
64939;DHT22;51453;47.738;7.420;2022-11-27T15:01:34;8.20;99.90
64939;DHT22;51453;47.738;7.420;2022-11-27T15:06:43;8.10;99.90
64939;DHT22;51453;47.738;7.420;2022-11-27T15:09:17;8.10;99.90
64939;DHT22;51453;47.738;7.420;2022-11-27T15:11:43;8.00;99.90
64939;DHT22;51453;47.738;7.420;2022-11-27T15:14:15;8.00;99.90
64939;DHT22;51453;47.738;7.420;2022-11-27T15:16:45;7.90;99.90
64939;DHT22;51453;47.738;7.420;2022-11-27T15:19:22;7.90;99.90
64939;DHT22;51453;47.738;7.420;2022-11-27T15:21:49;7.80;99.90
64939;DHT22;51453;47.738;7.420;2022-11-27T15:24:35;7.80;99.90
64939;DHT22;51453;47.738;7.420;2022-11-27T15:29:43;7.80;99.90
64939;DHT22;51453;47.738;7.420;2022-11-27T15:32:20;7.80;99.90
64939;DHT22;51453;47.738;7.420;2022-11-27T15:34:46;7.80;99.90
64939;DHT22;51453;47.738;7.420;2022-11-27T15:37:24;7.70;99.90
64939;DHT22;51453;47.738;7.420;2022-11-27T15:39:55;7.70;99.90
64939;DHT22;51453;47.738;7.420;2022-11-27T15:42:22;7.70;99.90
64939;DHT22;51453;47.738;7.420;2022-11-27T15:44:52;7.70;99.90
64939;DHT22;51453;47.738;7.420;2022-11-27T15:47:35;7.70;99.90
64939;DHT22;51453;47.738;7.420;2022-11-27T15:50:03;7.70;99.90
64939;DHT22;51453;47.738;7.420;2022-11-27T15:52:29;7.70;99.90
64939;DHT22;51453;47.738;7.420;2022-11-27T15:54:55;7.60;99.90
64939;DHT22;51453;47.738;7.420;2022-11-27T15:57:21;7.70;99.90
64939;DHT22;51453;47.738;7.420;2022-11-27T15:59:47;7.60;99.90
64939;DHT22;51453;47.738;7.420;2022-11-27T16:02:12;7.70;99.90
64939;DHT22;51453;47.738;7.420;2022-11-27T16:04:38;7.60;99.90
64939;DHT22;51453;47.738;7.420;2022-11-27T16:07:04;7.60;99.90
64939;DHT22;51453;47.738;7.420;2022-11-27T16:09:30;7.60;99.90
64939;DHT22;51453;47.738;7.420;2022-11-27T16:11:56;7.60;99.90
64939;DHT22;51453;47.738;7.420;2022-11-27T16:14:22;7.60;99.90
64939;DHT22;51453;47.738;7.420;2022-11-27T16:16:48;7.50;99.90
64939;DHT22;51453;47.738;7.420;2022-11-27T16:19:13;7.50;99.90
64939;DHT22;51453;47.738;7.420;2022-11-27T16:21:40;7.60;99.90
64939;DHT22;51453;47.738;7.420;2022-11-27T16:24:09;7.50;99.90
64939;DHT22;51453;47.738;7.420;2022-11-27T16:26:35;7.50;99.90
64939;DHT22;51453;47.738;7.420;2022-11-27T16:29:05;7.50;99.90
64939;DHT22;51453;47.738;7.420;2022-11-27T16:31:31;7.50;99.90
64939;DHT22;51453;47.738;7.420;2022-11-27T16:33:56;7.50;99.90
64939;DHT22;51453;47.738;7.420;2022-11-27T16:36:22;7.40;99.90
64939;DHT22;51453;47.738;7.420;2022-11-27T16:38:51;7.40;99.90
64939;DHT22;51453;47.738;7.420;2022-11-27T16:41:18;7.40;99.90
64939;DHT22;51453;47.738;7.420;2022-11-27T16:43:46;7.40;99.90
64939;DHT22;51453;47.738;7.420;2022-11-27T16:46:15;7.30;99.90
64939;DHT22;51453;47.738;7.420;2022-11-27T16:48:42;7.30;99.90
64939;DHT22;51453;47.738;7.420;2022-11-27T16:51:22;7.30;99.90
64939;DHT22;51453;47.738;7.420;2022-11-27T16:53:51;7.30;99.90
64939;DHT22;51453;47.738;7.420;2022-11-27T16:56:18;7.30;99.90
64939;DHT22;51453;47.738;7.420;2022-11-27T16:58:45;7.20;99.90
64939;DHT22;51453;47.738;7.420;2022-11-27T17:01:20;7.20;99.90
64939;DHT22;51453;47.738;7.420;2022-11-27T17:03:46;7.20;99.90
64939;DHT22;51453;47.738;7.420;2022-11-27T17:06:21;7.20;99.90
64939;DHT22;51453;47.738;7.420;2022-11-27T17:08:47;7.10;99.90
64939;DHT22;51453;47.738;7.420;2022-11-27T17:11:20;7.10;99.90
64939;DHT22;51453;47.738;7.420;2022-11-27T17:13:46;7.00;99.90
64939;DHT22;51453;47.738;7.420;2022-11-27T17:16:13;7.00;99.90
64939;DHT22;51453;47.738;7.420;2022-11-27T17:18:39;7.00;99.90
64939;DHT22;51453;47.738;7.420;2022-11-27T17:21:12;7.00;99.90
64939;DHT22;51453;47.738;7.420;2022-11-27T17:23:38;7.00;99.90
64939;DHT22;51453;47.738;7.420;2022-11-27T17:26:15;7.00;99.90
64939;DHT22;51453;47.738;7.420;2022-11-27T17:28:42;7.00;99.90
64939;DHT22;51453;47.738;7.420;2022-11-27T17:31:13;7.00;99.90
64939;DHT22;51453;47.738;7.420;2022-11-27T17:33:39;7.00;99.90
64939;DHT22;51453;47.738;7.420;2022-11-27T17:36:05;7.00;99.90
64939;DHT22;51453;47.738;7.420;2022-11-27T17:38:31;7.00;99.90
64939;DHT22;51453;47.738;7.420;2022-11-27T17:41:08;6.90;99.90
64939;DHT22;51453;47.738;7.420;2022-11-27T17:43:35;6.90;99.90
64939;DHT22;51453;47.738;7.420;2022-11-27T17:46:10;6.90;99.90
64939;DHT22;51453;47.738;7.420;2022-11-27T17:48:36;7.00;99.90
64939;DHT22;51453;47.738;7.420;2022-11-27T17:51:05;6.90;99.90
64939;DHT22;51453;47.738;7.420;2022-11-27T17:53:31;6.90;99.90
64939;DHT22;51453;47.738;7.420;2022-11-27T17:56:10;7.00;99.90
64939;DHT22;51453;47.738;7.420;2022-11-27T17:58:37;7.00;99.90
64939;DHT22;51453;47.738;7.420;2022-11-27T18:01:05;7.00;99.90
64939;DHT22;51453;47.738;7.420;2022-11-27T18:03:31;7.10;99.90
64939;DHT22;51453;47.738;7.420;2022-11-27T18:06:02;7.10;99.90
64939;DHT22;51453;47.738;7.420;2022-11-27T18:08:28;7.20;99.90
64939;DHT22;51453;47.738;7.420;2022-11-27T18:10:54;7.20;99.90
64939;DHT22;51453;47.738;7.420;2022-11-27T18:13:19;7.30;99.90
64939;DHT22;51453;47.738;7.420;2022-11-27T18:15:45;7.30;99.90
64939;DHT22;51453;47.738;7.420;2022-11-27T18:18:11;7.40;99.90